createdAt,value
2019-05-11T00:01:43.262Z,94615.73
2019-05-11T00:04:12.979Z,94627.68
2019-05-11T00:06:42.751Z,94628.91
2019-05-11T00:09:12.424Z,94625.77
2019-05-11T00:11:42.171Z,94622.59
2019-05-11T00:14:11.994Z,94617.61
2019-05-11T00:16:41.722Z,94618.16
2019-05-11T00:19:11.392Z,94619.17
2019-05-11T00:21:41.089Z,94619.26
2019-05-11T00:24:10.761Z,94618.16
2019-05-11T00:26:40.526Z,94611.94
2019-05-11T00:29:10.239Z,94620.91
2019-05-11T00:31:39.978Z,94618.39
2019-05-11T00:34:09.667Z,94618.18
2019-05-11T00:36:39.491Z,94620.30
2019-05-11T00:39:09.468Z,94618.39
2019-05-11T00:41:39.197Z,94620.77
2019-05-11T00:44:08.845Z,94617.69
2019-05-11T00:46:38.634Z,94620.02
2019-05-11T00:49:08.289Z,94618.20
2019-05-11T00:51:39.775Z,94623.27
2019-05-11T00:54:09.501Z,94624.17
2019-05-11T00:56:39.212Z,94619.22
2019-05-11T00:59:20.894Z,94622.86
2019-05-11T01:01:40.434Z,94623.27
2019-05-11T01:04:10.181Z,94626.91
2019-05-11T01:06:39.926Z,94616.80
2019-05-11T01:09:09.706Z,94616.11
2019-05-11T01:11:39.545Z,94616.02
2019-05-11T01:14:09.288Z,94623.18
2019-05-11T01:16:39.043Z,94617.92
2019-05-11T01:19:08.924Z,94619.13
2019-05-11T01:21:38.636Z,94624.08
2019-05-11T01:24:08.434Z,94625.80
2019-05-11T01:26:38.127Z,94638.34
2019-05-11T01:29:07.896Z,94642.05
2019-05-11T01:31:37.605Z,94643.64
2019-05-11T01:34:07.478Z,94642.13
2019-05-11T01:36:37.354Z,94632.12
2019-05-11T01:39:08.185Z,94633.88
2019-05-11T01:41:37.948Z,94644.38
2019-05-11T01:44:07.725Z,94641.45
2019-05-11T01:46:37.440Z,94644.68
2019-05-11T01:49:07.170Z,94655.34
2019-05-11T01:51:36.905Z,94659.63
2019-05-11T01:54:07.386Z,94665.25
2019-05-11T01:56:37.132Z,94669.09
2019-05-11T01:59:06.908Z,94673.02
2019-05-11T02:01:36.695Z,94673.33
2019-05-11T02:04:06.543Z,94671.71
2019-05-11T02:06:36.263Z,94667.17
2019-05-11T02:09:07.501Z,94666.70
2019-05-11T02:11:37.226Z,94671.16
2019-05-11T02:14:07.042Z,94671.40
2019-05-11T02:16:36.805Z,94668.27
2019-05-11T02:19:06.654Z,94669.77
2019-05-11T02:21:36.437Z,94671.75
2019-05-11T02:24:06.149Z,94668.52
2019-05-11T02:26:35.897Z,94665.59
2019-05-11T02:29:05.606Z,94670.55
2019-05-11T02:31:35.375Z,94671.25
2019-05-11T02:34:05.151Z,94664.80
2019-05-11T02:36:34.969Z,94663.27
2019-05-11T02:39:06.981Z,94668.33
2019-05-11T02:41:37.664Z,94673.14
2019-05-11T02:44:07.691Z,94677.17
2019-05-11T02:46:37.452Z,94682.63
2019-05-11T02:49:07.187Z,94683.57
2019-05-11T02:51:37.370Z,94687.01
2019-05-11T02:54:08.914Z,94690.80
2019-05-11T02:56:38.742Z,94690.73
2019-05-11T02:59:08.540Z,94692.36
2019-05-11T03:01:38.313Z,94689.77
2019-05-11T03:04:08.127Z,94690.87
2019-05-11T03:06:37.897Z,94686.84
2019-05-11T03:09:08.038Z,94693.39
2019-05-11T03:11:54.097Z,94697.53
2019-05-11T03:14:09.337Z,94699.85
2019-05-11T03:16:39.066Z,94696.42
2019-05-11T03:19:08.767Z,94703.98
2019-05-11T03:21:38.487Z,94699.34
2019-05-11T03:24:08.259Z,94700.45
2019-05-11T03:26:37.994Z,94707.01
2019-05-11T03:29:07.811Z,94708.31
2019-05-11T03:31:37.553Z,94714.08
2019-05-11T03:34:07.285Z,94712.34
2019-05-11T03:36:37.021Z,94718.60
2019-05-11T03:39:07.233Z,94719.28
2019-05-11T03:41:36.972Z,94728.75
2019-05-11T03:44:06.707Z,94727.45
2019-05-11T03:46:36.863Z,94728.76
2019-05-11T03:49:06.609Z,94729.94
2019-05-11T03:51:36.389Z,94729.37
2019-05-11T03:54:06.225Z,94733.50
2019-05-11T03:56:35.947Z,94733.22
2019-05-11T03:59:05.756Z,94739.80
2019-05-11T04:01:35.874Z,94737.09
2019-05-11T04:04:05.617Z,94741.24
2019-05-11T04:06:38.052Z,94745.38
2019-05-11T04:09:08.195Z,94749.19
2019-05-11T04:11:37.677Z,94748.80
2019-05-11T04:14:07.186Z,94744.13
2019-05-11T04:16:36.678Z,94752.39
2019-05-11T04:19:06.181Z,94749.55
2019-05-11T04:21:35.651Z,94760.53
2019-05-11T04:24:05.128Z,94757.59
2019-05-11T04:26:34.609Z,94753.52
2019-05-11T04:29:04.059Z,94756.83
2019-05-11T04:31:33.535Z,94758.50
2019-05-11T04:34:03.034Z,94757.75
2019-05-11T04:36:32.528Z,94755.65
2019-05-11T04:39:01.996Z,94748.48
2019-05-11T04:41:31.461Z,94750.74
2019-05-11T04:44:00.974Z,94756.73
2019-05-11T04:46:30.492Z,94747.39
2019-05-11T04:48:59.941Z,94753.27
2019-05-11T04:51:29.415Z,94750.26
2019-05-11T04:53:58.881Z,94754.47
2019-05-11T04:56:28.396Z,94748.91
2019-05-11T04:58:57.920Z,94755.10
2019-05-11T05:01:27.438Z,94762.84
2019-05-11T05:04:12.231Z,94753.39
2019-05-11T05:06:28.227Z,94764.47
2019-05-11T05:08:58.246Z,94764.16
2019-05-11T05:11:30.569Z,94771.91
2019-05-11T05:14:01.766Z,94778.33
2019-05-11T05:16:31.686Z,94773.47
2019-05-11T05:19:01.272Z,94772.47
2019-05-11T05:21:30.776Z,94781.61
2019-05-11T05:24:00.278Z,94778.95
2019-05-11T05:26:29.777Z,94778.03
2019-05-11T05:28:59.294Z,94781.44
2019-05-11T05:31:28.744Z,94785.80
2019-05-11T05:34:01.413Z,94780.80
2019-05-11T05:36:29.493Z,94795.36
2019-05-11T05:38:59.014Z,94789.89
2019-05-11T05:41:28.472Z,94789.13
2019-05-11T05:43:58.052Z,94793.96
2019-05-11T05:46:27.560Z,94788.47
2019-05-11T05:48:57.018Z,94788.18
2019-05-11T05:51:26.521Z,94780.55
2019-05-11T05:53:55.998Z,94785.63
2019-05-11T05:56:25.510Z,94791.18
2019-05-11T05:58:55.014Z,94794.30
2019-05-11T06:01:24.513Z,94791.60
2019-05-11T06:03:54.011Z,94798.88
2019-05-11T06:06:23.625Z,94797.09
2019-05-11T06:08:53.110Z,94805.31
2019-05-11T06:11:22.690Z,94797.45
2019-05-11T06:13:52.243Z,94807.53
2019-05-11T06:16:21.923Z,94809.89
2019-05-11T06:18:51.535Z,94806.38
2019-05-11T06:21:21.330Z,94823.82
2019-05-11T06:23:50.868Z,94828.71
2019-05-11T06:26:20.388Z,94826.63
2019-05-11T06:28:50.055Z,94830.27
2019-05-11T06:31:19.728Z,94835.72
2019-05-11T06:33:49.334Z,94831.45
2019-05-11T06:36:19.151Z,94826.13
2019-05-11T06:38:48.640Z,94825.87
2019-05-11T06:41:18.254Z,94820.88
2019-05-11T06:44:00.666Z,94829.28
2019-05-11T06:46:19.290Z,94816.53
2019-05-11T06:48:48.937Z,94829.11
2019-05-11T06:51:18.520Z,94831.17
2019-05-11T06:53:48.035Z,94827.50
2019-05-11T06:56:17.709Z,94821.27
2019-05-11T06:58:47.330Z,94824.81
2019-05-11T07:01:17.207Z,94819.53
2019-05-11T07:03:46.797Z,94830.53
2019-05-11T07:06:16.672Z,94830.91
2019-05-11T07:08:46.357Z,94836.77
2019-05-11T07:11:15.837Z,94823.76
2019-05-11T07:13:45.366Z,94827.93
2019-05-11T07:16:14.932Z,94819.19
2019-05-11T07:18:44.387Z,94820.97
2019-05-11T07:21:13.928Z,94836.16
2019-05-11T07:23:43.655Z,94822.20
2019-05-11T07:26:13.209Z,94823.09
2019-05-11T07:28:42.744Z,94827.41
2019-05-11T07:31:12.287Z,94822.41
2019-05-11T07:33:41.990Z,94831.67
2019-05-11T07:36:11.788Z,94833.91
2019-05-11T07:38:41.322Z,94832.23
2019-05-11T07:41:10.805Z,94826.42
2019-05-11T07:43:40.246Z,94827.88
2019-05-11T07:46:09.753Z,94832.84
2019-05-11T07:48:39.223Z,94845.42
2019-05-11T07:51:09.041Z,94857.56
2019-05-11T07:53:38.552Z,94842.57
2019-05-11T07:56:09.580Z,94840.53
2019-05-11T07:58:39.145Z,94848.59
2019-05-11T08:01:08.869Z,94841.39
2019-05-11T08:03:39.000Z,94831.84
2019-05-11T08:06:09.034Z,94844.09
2019-05-11T08:08:38.702Z,94843.74
2019-05-11T08:11:08.308Z,94842.25
2019-05-11T08:13:38.803Z,94841.09
2019-05-11T08:16:08.542Z,94847.02
2019-05-11T08:18:38.709Z,94820.28
2019-05-11T08:21:08.989Z,94826.44
2019-05-11T08:23:38.617Z,94820.39
2019-05-11T08:26:08.536Z,94830.02
2019-05-11T08:28:38.248Z,94832.05
2019-05-11T08:31:08.191Z,94842.53
2019-05-11T08:33:38.886Z,94820.11
2019-05-11T08:36:08.651Z,94838.19
2019-05-11T08:38:38.274Z,94829.34
2019-05-11T08:41:08.213Z,94833.81
2019-05-11T08:43:38.866Z,94808.83
2019-05-11T08:46:08.549Z,94818.46
2019-05-11T08:48:38.941Z,94824.94
2019-05-11T08:51:08.658Z,94827.14
2019-05-11T08:53:38.829Z,94811.30
2019-05-11T08:56:12.742Z,94803.07
2019-05-11T08:58:39.911Z,94801.97
2019-05-11T09:01:09.505Z,94796.72
2019-05-11T09:03:39.037Z,94809.13
2019-05-11T09:06:08.643Z,94801.55
2019-05-11T09:08:38.942Z,94797.69
2019-05-11T09:11:08.583Z,94800.06
2019-05-11T09:13:39.381Z,94794.94
2019-05-11T09:16:09.109Z,94807.41
2019-05-11T09:18:38.723Z,94797.22
2019-05-11T09:21:08.491Z,94804.41
2019-05-11T09:23:40.819Z,94800.30
2019-05-11T09:26:09.366Z,94797.75
2019-05-11T09:28:38.905Z,94800.77
2019-05-11T09:31:08.683Z,94803.09
2019-05-11T09:33:38.720Z,94801.42
2019-05-11T09:36:08.717Z,94795.09
2019-05-11T09:38:38.579Z,94808.77
2019-05-11T09:41:11.853Z,94793.52
2019-05-11T09:43:39.258Z,94804.71
2019-05-11T09:46:08.757Z,94789.30
2019-05-11T09:48:38.283Z,94784.88
2019-05-11T09:51:08.088Z,94789.66
2019-05-11T09:53:38.815Z,94784.91
2019-05-11T09:56:08.631Z,94794.26
2019-05-11T09:58:38.814Z,94790.17
2019-05-11T10:01:08.986Z,94777.73
2019-05-11T10:03:38.878Z,94793.48
2019-05-11T10:06:08.566Z,94792.02
2019-05-11T10:08:38.297Z,94790.41
2019-05-11T10:11:08.464Z,94799.08
2019-05-11T10:13:38.608Z,94782.13
2019-05-11T10:16:10.654Z,94768.94
2019-05-11T10:18:39.903Z,94783.98
2019-05-11T10:21:09.409Z,94775.58
2019-05-11T10:23:42.116Z,94779.48
2019-05-11T10:26:10.193Z,94788.45
2019-05-11T10:28:40.942Z,94782.60
2019-05-11T10:31:10.634Z,94783.52
2019-05-11T10:33:40.275Z,94783.74
2019-05-11T10:36:09.756Z,94773.31
2019-05-11T10:38:39.311Z,94771.43
2019-05-11T10:41:08.913Z,94766.32
2019-05-11T10:43:38.410Z,94756.69
2019-05-11T10:46:17.127Z,94760.50
2019-05-11T10:48:39.179Z,94761.83
2019-05-11T10:51:08.640Z,94751.84
2019-05-11T10:53:38.556Z,94764.49
2019-05-11T10:56:08.825Z,94756.94
2019-05-11T10:58:38.486Z,94758.82
2019-05-11T11:01:08.786Z,94757.17
2019-05-11T11:03:38.570Z,94755.47
2019-05-11T11:06:08.535Z,94755.27
2019-05-11T11:08:38.483Z,94758.47
2019-05-11T11:11:08.299Z,94757.98
2019-05-11T11:13:38.650Z,94761.47
2019-05-11T11:16:08.556Z,94761.70
2019-05-11T11:18:38.284Z,94756.55
2019-05-11T11:21:08.708Z,94750.69
2019-05-11T11:23:38.578Z,94746.95
2019-05-11T11:26:08.417Z,94749.11
2019-05-11T11:28:38.507Z,94740.31
2019-05-11T11:31:08.111Z,94749.42
2019-05-11T11:33:38.278Z,94746.95
2019-05-11T11:36:08.543Z,94746.72
2019-05-11T11:38:38.182Z,94751.28
2019-05-11T11:41:07.813Z,94743.00
2019-05-11T11:43:37.855Z,94747.59
2019-05-11T11:46:08.425Z,94748.45
2019-05-11T11:48:38.538Z,94749.05
2019-05-11T11:51:08.295Z,94754.43
2019-05-11T11:53:38.378Z,94745.93
2019-05-11T11:56:08.491Z,94739.78
2019-05-11T11:58:38.250Z,94731.81
2019-05-11T12:01:08.389Z,94734.25
2019-05-11T12:03:41.464Z,94728.13
2019-05-11T12:06:10.959Z,94741.70
2019-05-11T12:08:40.449Z,94730.49
2019-05-11T12:11:09.977Z,94725.71
2019-05-11T12:13:39.486Z,94736.94
2019-05-11T12:16:08.957Z,94723.62
2019-05-11T12:18:38.450Z,94719.37
2019-05-11T12:21:08.197Z,94723.40
2019-05-11T12:23:38.298Z,94718.87
2019-05-11T12:26:08.484Z,94709.80
2019-05-11T12:28:38.350Z,94713.23
2019-05-11T12:31:08.737Z,94711.56
2019-05-11T12:33:38.650Z,94716.17
2019-05-11T12:36:08.290Z,94709.20
2019-05-11T12:38:38.365Z,94714.55
2019-05-11T12:41:08.825Z,94711.92
2019-05-11T12:43:38.510Z,94707.39
2019-05-11T12:46:08.290Z,94711.66
2019-05-11T12:48:38.052Z,94710.03
2019-05-11T12:51:08.157Z,94713.50
2019-05-11T12:53:38.534Z,94713.77
2019-05-11T12:56:08.461Z,94709.53
2019-05-11T12:58:39.579Z,94708.77
2019-05-11T13:01:09.209Z,94700.72
2019-05-11T13:03:38.720Z,94713.77
2019-05-11T13:06:09.018Z,94693.50
2019-05-11T13:08:38.954Z,94697.38
2019-05-11T13:11:08.762Z,94699.77
2019-05-11T13:13:38.268Z,94692.08
2019-05-11T13:16:08.743Z,94692.60
2019-05-11T13:18:38.577Z,94688.67
2019-05-11T13:21:08.164Z,94687.89
2019-05-11T13:23:38.252Z,94698.03
2019-05-11T13:26:08.731Z,94689.75
2019-05-11T13:28:38.403Z,94691.64
2019-05-11T13:31:08.365Z,94685.77
2019-05-11T13:33:38.460Z,94690.58
2019-05-11T13:36:09.087Z,94679.13
2019-05-11T13:38:38.945Z,94678.34
2019-05-11T13:41:08.468Z,94680.20
2019-05-11T13:43:38.570Z,94679.66
2019-05-11T13:46:08.734Z,94678.88
2019-05-11T13:48:38.711Z,94680.21
2019-05-11T13:51:08.918Z,94670.86
2019-05-11T13:53:38.424Z,94678.32
2019-05-11T13:56:08.243Z,94679.12
2019-05-11T13:58:38.275Z,94675.16
2019-05-11T14:01:08.198Z,94673.00
2019-05-11T14:03:37.884Z,94674.33
2019-05-11T14:06:08.748Z,94668.19
2019-05-11T14:08:38.567Z,94672.94
2019-05-11T14:11:08.676Z,94666.83
2019-05-11T14:13:38.749Z,94666.51
2019-05-11T14:16:08.382Z,94668.88
2019-05-11T14:18:38.774Z,94672.91
2019-05-11T14:21:08.348Z,94678.83
2019-05-11T14:23:38.862Z,94674.08
2019-05-11T14:26:08.657Z,94683.39
2019-05-11T14:28:38.253Z,94679.13
2019-05-11T14:31:08.352Z,94677.53
2019-05-11T14:33:38.591Z,94679.94
2019-05-11T14:36:08.717Z,94687.38
2019-05-11T14:38:38.329Z,94677.77
2019-05-11T14:41:07.917Z,94677.80
2019-05-11T14:43:38.326Z,94671.66
2019-05-11T14:46:08.726Z,94678.08
2019-05-11T14:48:39.176Z,94675.13
2019-05-11T14:51:08.746Z,94669.02
2019-05-11T14:53:38.248Z,94684.20
2019-05-11T14:56:08.444Z,94674.34
2019-05-11T14:58:38.557Z,94685.27
2019-05-11T15:01:08.843Z,94679.14
2019-05-11T15:03:38.590Z,94686.86
2019-05-11T15:06:08.394Z,94675.94
2019-05-11T15:08:38.677Z,94679.39
2019-05-11T15:11:08.442Z,94673.53
2019-05-11T15:13:38.335Z,94681.25
2019-05-11T15:16:08.233Z,94679.92
2019-05-11T15:18:41.753Z,94671.39
2019-05-11T15:21:08.948Z,94675.39
2019-05-11T15:23:38.489Z,94668.48
2019-05-11T15:26:11.621Z,94670.33
2019-05-11T15:28:41.219Z,94668.72
2019-05-11T15:31:22.064Z,94675.68
2019-05-11T15:33:49.030Z,94667.42
2019-05-11T15:36:19.232Z,94669.00
2019-05-11T15:38:49.170Z,94668.73
2019-05-11T15:41:18.682Z,94668.20
2019-05-11T15:43:48.220Z,94668.99
2019-05-11T15:46:19.857Z,94662.36
2019-05-11T15:48:59.369Z,94663.39
2019-05-11T15:51:20.465Z,94663.38
2019-05-11T15:53:50.385Z,94670.85
2019-05-11T15:56:20.019Z,94663.64
2019-05-11T15:58:49.620Z,94667.91
2019-05-11T16:01:19.164Z,94666.31
2019-05-11T16:03:50.081Z,94662.84
2019-05-11T16:06:19.782Z,94662.06
2019-05-11T16:08:49.276Z,94670.88
2019-05-11T16:11:18.764Z,94674.08
2019-05-11T16:13:48.568Z,94678.32
2019-05-11T16:16:18.160Z,94682.33
2019-05-11T16:18:48.402Z,94681.80
2019-05-11T16:21:18.855Z,94686.08
2019-05-11T16:23:48.382Z,94680.20
2019-05-11T16:26:17.837Z,94682.85
2019-05-11T16:28:47.813Z,94680.16
2019-05-11T16:31:17.950Z,94677.48
2019-05-11T16:33:48.373Z,94686.20
2019-05-11T16:36:18.322Z,94685.92
2019-05-11T16:38:48.398Z,94689.92
2019-05-11T16:41:21.012Z,94688.58
2019-05-11T16:43:49.237Z,94696.29
2019-05-11T16:46:18.717Z,94693.87
2019-05-11T16:48:48.202Z,94698.66
2019-05-11T16:51:17.858Z,94702.36
2019-05-11T16:53:48.099Z,94697.02
2019-05-11T16:56:19.671Z,94709.81
2019-05-11T16:58:49.901Z,94713.74
2019-05-11T17:01:19.329Z,94713.20
2019-05-11T17:03:48.869Z,94718.50
2019-05-11T17:06:19.693Z,94716.09
2019-05-11T17:08:49.431Z,94721.16
2019-05-11T17:11:18.915Z,94721.38
2019-05-11T17:13:48.517Z,94724.58
2019-05-11T17:16:18.121Z,94728.30
2019-05-11T17:18:48.304Z,94735.20
2019-05-11T17:21:18.508Z,94729.05
2019-05-11T17:23:48.794Z,94728.73
2019-05-11T17:26:19.175Z,94732.17
2019-05-11T17:28:49.077Z,94734.81
2019-05-11T17:31:19.060Z,94733.99
2019-05-11T17:33:48.703Z,94732.27
2019-05-11T17:36:18.762Z,94734.87
2019-05-11T17:38:48.429Z,94738.25
2019-05-11T17:41:17.914Z,94742.67
2019-05-11T17:43:47.956Z,94743.08
2019-05-11T17:46:18.593Z,94745.82
2019-05-11T17:48:50.886Z,94743.87
2019-05-11T17:51:24.145Z,94746.66
2019-05-11T17:53:51.638Z,94747.67
2019-05-11T17:56:21.136Z,94757.69
2019-05-11T17:58:50.609Z,94757.81
2019-05-11T18:01:20.089Z,94764.36
2019-05-11T18:03:49.709Z,94767.41
2019-05-11T18:06:19.250Z,94768.17
2019-05-11T18:08:48.886Z,94765.39
2019-05-11T18:11:21.300Z,94761.60
2019-05-11T18:13:50.864Z,94756.52
2019-05-11T18:16:20.309Z,94755.88
2019-05-11T18:18:49.853Z,94758.48
2019-05-11T18:21:19.423Z,94761.55
2019-05-11T18:23:48.969Z,94764.30
2019-05-11T18:26:18.507Z,94772.53
2019-05-11T18:28:48.336Z,94776.40
2019-05-11T18:31:18.291Z,94776.11
2019-05-11T18:33:48.707Z,94775.25
2019-05-11T18:36:20.121Z,94774.56
2019-05-11T18:38:49.698Z,94778.02
2019-05-11T18:41:19.215Z,94781.81
2019-05-11T18:43:48.775Z,94781.97
2019-05-11T18:46:18.327Z,94783.99
2019-05-11T18:48:48.675Z,94785.42
2019-05-11T18:51:18.270Z,94787.59
2019-05-11T18:53:48.313Z,94791.91
2019-05-11T18:56:18.274Z,94796.98
2019-05-11T18:58:47.925Z,94799.70
2019-05-11T19:01:17.985Z,94801.92
2019-05-11T19:03:48.006Z,94801.97
2019-05-11T19:06:18.358Z,94804.13
2019-05-11T19:08:48.537Z,94807.86
2019-05-11T19:11:18.333Z,94807.34
2019-05-11T19:13:48.073Z,94810.28
2019-05-11T19:16:18.748Z,94815.58
2019-05-11T19:18:48.518Z,94818.32
2019-05-11T19:21:18.245Z,94824.53
2019-05-11T19:23:48.676Z,94821.77
2019-05-11T19:26:18.512Z,94830.49
2019-05-11T19:28:50.338Z,94830.95
2019-05-11T19:31:19.822Z,94826.31
2019-05-11T19:33:49.385Z,94825.36
2019-05-11T19:36:21.987Z,94823.41
2019-05-11T19:38:51.567Z,94819.86
2019-05-11T19:41:21.074Z,94823.62
2019-05-11T19:43:50.585Z,94824.81
2019-05-11T19:46:20.094Z,94826.50
2019-05-11T19:48:49.700Z,94825.08
2019-05-11T19:51:19.240Z,94824.95
2019-05-11T19:53:48.769Z,94828.63
2019-05-11T19:56:18.465Z,94837.14
2019-05-11T19:58:48.550Z,94833.40
2019-05-11T20:01:18.783Z,94833.23
2019-05-11T20:03:48.473Z,94841.39
2019-05-11T20:06:17.986Z,94842.48
2019-05-11T20:08:47.554Z,94838.81
2019-05-11T20:11:18.678Z,94838.30
2019-05-11T20:13:48.378Z,94844.55
2019-05-11T20:16:18.798Z,94840.59
2019-05-11T20:18:48.397Z,94843.71
2019-05-11T20:21:22.669Z,94847.02
2019-05-11T20:23:49.135Z,94844.06
2019-05-11T20:26:18.661Z,94841.50
2019-05-11T20:28:48.372Z,94845.36
2019-05-11T20:31:18.486Z,94852.67
2019-05-11T20:33:48.168Z,94849.67
2019-05-11T20:36:17.903Z,94851.55
2019-05-11T20:38:47.742Z,94854.82
2019-05-11T20:41:17.396Z,94858.83
2019-05-11T20:43:47.047Z,94854.79
2019-05-11T20:46:18.460Z,94847.63
2019-05-11T20:48:48.573Z,94846.75
2019-05-11T20:51:32.823Z,94848.37
2019-05-11T20:53:49.433Z,94851.97
2019-05-11T20:56:18.920Z,94858.05
2019-05-11T20:58:55.552Z,94855.70
2019-05-11T21:01:28.326Z,94862.09
2019-05-11T21:03:58.526Z,94866.56
2019-05-11T21:06:29.448Z,94867.00
2019-05-11T21:08:59.348Z,94865.34
2019-05-11T21:11:28.898Z,94869.53
2019-05-11T21:13:58.451Z,94872.61
2019-05-11T21:16:27.943Z,94877.48
2019-05-11T21:18:57.988Z,94876.47
2019-05-11T21:21:28.201Z,94875.45
2019-05-11T21:23:58.854Z,94875.00
2019-05-11T21:26:28.412Z,94875.52
2019-05-11T21:28:58.162Z,94875.00
2019-05-11T21:31:29.051Z,94883.12
2019-05-11T21:33:58.955Z,94884.83
2019-05-11T21:36:28.602Z,94890.55
2019-05-11T21:38:58.728Z,94888.93
2019-05-11T21:41:31.006Z,94882.07
2019-05-11T21:43:59.605Z,94881.70
2019-05-11T21:46:29.173Z,94875.02
2019-05-11T21:48:58.763Z,94874.90
2019-05-11T21:51:29.723Z,94876.53
2019-05-11T21:53:59.212Z,94880.84
2019-05-11T21:56:28.985Z,94874.72
2019-05-11T21:58:58.505Z,94871.89
2019-05-11T22:01:28.388Z,94869.69
2019-05-11T22:03:59.546Z,94865.09
2019-05-11T22:06:32.189Z,94862.02
2019-05-11T22:09:01.819Z,94852.92
2019-05-11T22:11:31.291Z,94851.91
2019-05-11T22:14:00.770Z,94846.77
2019-05-11T22:16:30.615Z,94838.64
2019-05-11T22:19:00.186Z,94840.17
2019-05-11T22:21:29.660Z,94840.63
2019-05-11T22:23:59.122Z,94843.83
2019-05-11T22:26:28.792Z,94836.68
2019-05-11T22:28:58.351Z,94839.83
2019-05-11T22:31:28.157Z,94839.31
2019-05-11T22:33:58.330Z,94844.72
2019-05-11T22:36:28.364Z,94848.84
2019-05-11T22:38:58.731Z,94845.95
2019-05-11T22:41:28.435Z,94845.82
2019-05-11T22:43:57.909Z,94848.02
2019-05-11T22:46:28.122Z,94846.45
2019-05-11T22:48:58.252Z,94848.52
2019-05-11T22:51:28.840Z,94853.20
2019-05-11T22:53:59.138Z,94842.48
2019-05-11T22:56:28.799Z,94845.62
2019-05-11T22:58:58.815Z,94850.06
2019-05-11T23:01:28.439Z,94855.39
2019-05-11T23:03:58.480Z,94860.00
2019-05-11T23:06:28.079Z,94853.96
2019-05-11T23:08:58.737Z,94856.33
2019-05-11T23:11:28.610Z,94849.56
2019-05-11T23:13:58.154Z,94843.34
2019-05-11T23:16:28.650Z,94846.90
2019-05-11T23:18:58.310Z,94847.77
2019-05-11T23:21:30.123Z,94845.42
2019-05-11T23:23:58.978Z,94847.39
2019-05-11T23:26:28.429Z,94843.46
2019-05-11T23:28:58.131Z,94843.06
2019-05-11T23:31:28.005Z,94854.14
2019-05-11T23:33:57.988Z,94846.36
2019-05-11T23:36:28.271Z,94839.08
2019-05-11T23:38:58.480Z,94835.55
2019-05-11T23:41:28.971Z,94847.08
2019-05-11T23:43:58.578Z,94847.98
2019-05-11T23:46:28.656Z,94838.77
2019-05-11T23:48:58.290Z,94842.72
2019-05-11T23:51:28.271Z,94848.44
2019-05-11T23:53:58.830Z,94841.75
2019-05-11T23:56:28.461Z,94850.81
2019-05-11T23:58:58.056Z,94842.20
